Time,TemperatureF,DewpointF,PressureIn,WindDirection,WindDirectionDegrees,WindSpeedMPH,WindSpeedGustMPH,Humidity,HourlyPrecipIn,Conditions,Clouds,dailyrainin,SoftwareType,DateUTC
2013-10-10 00:01:00,53.2,47.2,29.58,West,270,0.0,-999.0,80,-99.99,,,0.00,Acu-Link.com,2013-10-10 07:01:00,
2013-10-10 00:16:00,53.1,46.8,29.58,West,270,0.0,-999.0,79,-99.99,,,0.00,Acu-Link.com,2013-10-10 07:16:00,
2013-10-10 00:31:00,52.3,46.0,29.58,SSW,202,0.0,-999.0,79,-99.99,,,0.00,Acu-Link.com,2013-10-10 07:31:00,
2013-10-10 00:46:00,51.6,46.6,29.58,West,270,0.0,-999.0,83,-99.99,,,0.00,Acu-Link.com,2013-10-10 07:46:00,
2013-10-10 01:02:00,51.4,46.4,29.57,West,270,0.0,-999.0,83,-99.99,,,0.00,Acu-Link.com,2013-10-10 08:02:00,
2013-10-10 01:17:00,50.9,46.6,29.58,SSE,157,0.0,-999.0,85,-99.99,,,0.00,Acu-Link.com,2013-10-10 08:17:00,
2013-10-10 01:33:00,50.7,46.4,29.58,West,270,0.0,-999.0,85,-99.99,,,0.00,Acu-Link.com,2013-10-10 08:33:00,
2013-10-10 01:48:00,50.5,46.2,29.58,NNE,22,0.0,-999.0,85,-99.99,,,0.00,Acu-Link.com,2013-10-10 08:48:00,
2013-10-10 02:03:00,50.0,45.7,29.59,ENE,67,0.0,-999.0,85,-99.99,,,0.00,Acu-Link.com,2013-10-10 09:03:00,
2013-10-10 02:18:00,49.5,45.2,29.60,NNE,22,0.0,-999.0,85,-99.99,,,0.00,Acu-Link.com,2013-10-10 09:18:00,
2013-10-10 02:33:00,49.3,46.2,29.60,West,270,0.0,-999.0,89,-99.99,,,0.00,Acu-Link.com,2013-10-10 09:33:00,
2013-10-10 02:48:00,49.5,47.3,29.60,West,270,0.0,-999.0,92,-99.99,,,0.00,Acu-Link.com,2013-10-10 09:48:00,
2013-10-10 03:04:00,49.8,47.6,29.60,SSE,157,0.0,-999.0,92,-99.99,,,0.00,Acu-Link.com,2013-10-10 10:04:00,
2013-10-10 03:19:00,50.2,48.0,29.61,ENE,67,0.0,-999.0,92,-99.99,,,0.00,Acu-Link.com,2013-10-10 10:19:00,
2013-10-10 03:34:00,51.1,49.1,29.61,WNW,292,0.0,-999.0,93,-99.99,,,0.00,Acu-Link.com,2013-10-10 10:34:00,
2013-10-10 03:49:00,50.7,48.5,29.61,ESE,112,0.0,-999.0,92,-99.99,,,0.00,Acu-Link.com,2013-10-10 10:49:00,
2013-10-10 04:05:00,50.2,47.7,29.62,West,270,0.0,-999.0,91,-99.99,,,0.00,Acu-Link.com,2013-10-10 11:05:00,
2013-10-10 04:20:00,49.6,46.8,29.63,NE,45,0.0,-999.0,90,-99.99,,,0.00,Acu-Link.com,2013-10-10 11:20:00,
2013-10-10 04:35:00,49.3,46.5,29.63,North,0,0.0,-999.0,90,-99.99,,,0.00,Acu-Link.com,2013-10-10 11:35:00,
2013-10-10 04:51:00,48.9,46.4,29.63,ESE,112,0.0,-999.0,91,-99.99,,,0.00,Acu-Link.com,2013-10-10 11:51:00,
2013-10-10 05:06:00,48.7,46.5,29.64,SW,225,0.0,-999.0,92,-99.99,,,0.00,Acu-Link.com,2013-10-10 12:06:00,
2013-10-10 05:21:00,48.7,46.5,29.64,NNW,337,0.0,-999.0,92,-99.99,,,0.00,Acu-Link.com,2013-10-10 12:21:00,
2013-10-10 05:36:00,48.7,46.8,29.64,West,270,0.0,-999.0,93,-99.99,,,0.00,Acu-Link.com,2013-10-10 12:36:00,
2013-10-10 05:52:00,48.9,47.0,29.64,West,270,0.0,-999.0,93,-99.99,,,0.00,Acu-Link.com,2013-10-10 12:52:00,
2013-10-10 06:07:00,48.9,47.0,29.65,West,270,0.0,-999.0,93,-99.99,,,0.00,Acu-Link.com,2013-10-10 13:07:00,
2013-10-10 06:22:00,48.9,47.2,29.65,West,270,0.0,-999.0,94,-99.99,,,0.00,Acu-Link.com,2013-10-10 13:22:00,
2013-10-10 06:38:00,49.1,48.3,29.66,West,270,0.0,-999.0,97,-99.99,,,0.00,Acu-Link.com,2013-10-10 13:38:00,
2013-10-10 06:53:00,49.1,48.0,29.66,ESE,112,0.0,-999.0,96,-99.99,,,0.00,Acu-Link.com,2013-10-10 13:53:00,
2013-10-10 07:08:00,48.7,47.3,29.66,NW,315,0.0,-999.0,95,-99.99,,,0.00,Acu-Link.com,2013-10-10 14:08:00,
2013-10-10 07:24:00,48.6,47.2,29.66,ENE,67,0.0,-999.0,95,-99.99,,,0.00,Acu-Link.com,2013-10-10 14:24:00,
2013-10-10 07:39:00,48.7,47.3,29.67,ENE,67,0.0,-999.0,95,-99.99,,,0.00,Acu-Link.com,2013-10-10 14:39:00,
2013-10-10 07:54:00,49.5,48.4,29.68,ENE,67,0.0,-999.0,96,-99.99,,,0.00,Acu-Link.com,2013-10-10 14:54:00,
2013-10-10 08:09:00,50.7,50.2,29.69,NNW,337,0.0,-999.0,98,-99.99,,,0.00,Acu-Link.com,2013-10-10 15:09:00,
2013-10-10 08:25:00,52.0,51.2,29.70,SSW,202,0.0,-999.0,97,-99.99,,,0.00,Acu-Link.com,2013-10-10 15:25:00,
2013-10-10 08:40:00,55.9,52.1,29.71,WSW,247,3.7,-999.0,87,-99.99,,,0.00,Acu-Link.com,2013-10-10 15:40:00,
2013-10-10 08:55:00,57.2,51.4,29.72,NNW,337,7.8,-999.0,81,-99.99,,,0.00,Acu-Link.com,2013-10-10 15:55:00,
2013-10-10 09:10:00,58.3,51.5,29.72,NW,315,5.8,-999.0,78,-99.99,,,0.00,Acu-Link.com,2013-10-10 16:10:00,
2013-10-10 09:25:00,61.2,51.7,29.73,NW,315,3.7,-999.0,71,-99.99,,,0.00,Acu-Link.com,2013-10-10 16:25:00,
2013-10-10 09:41:00,64.6,52.1,29.73,West,270,2.2,-999.0,64,-99.99,,,0.00,Acu-Link.com,2013-10-10 16:41:00,
2013-10-10 09:56:00,67.8,52.0,29.73,ESE,112,2.7,-999.0,57,-99.99,,,0.00,Acu-Link.com,2013-10-10 16:56:00,
2013-10-10 10:11:00,70.0,52.1,29.73,WNW,292,2.7,-999.0,53,-99.99,,,0.00,Acu-Link.com,2013-10-10 17:11:00,
2013-10-10 10:27:00,71.6,52.0,29.74,WNW,292,0.0,-999.0,50,-99.99,,,0.00,Acu-Link.com,2013-10-10 17:27:00,
2013-10-10 10:42:00,73.8,51.7,29.74,SSE,157,2.2,-999.0,46,-99.99,,,0.00,Acu-Link.com,2013-10-10 17:42:00,
2013-10-10 10:57:00,73.9,51.2,29.74,SW,225,0.0,-999.0,45,-99.99,,,0.00,Acu-Link.com,2013-10-10 17:57:00,
2013-10-10 11:12:00,74.8,51.4,29.74,SW,225,1.7,-999.0,44,-99.99,,,0.00,Acu-Link.com,2013-10-10 18:12:00,
2013-10-10 11:27:00,74.7,53.1,29.75,SE,135,2.2,-999.0,47,-99.99,,,0.00,Acu-Link.com,2013-10-10 18:27:00,
2013-10-10 11:43:00,74.5,52.9,29.75,ENE,67,1.1,-999.0,47,-99.99,,,0.00,Acu-Link.com,2013-10-10 18:43:00,
2013-10-10 11:58:00,75.2,52.4,29.75,East,90,2.7,-999.0,45,-99.99,,,0.00,Acu-Link.com,2013-10-10 18:58:00,
2013-10-10 12:13:00,75.2,51.8,29.75,SW,225,1.7,-999.0,44,-99.99,,,0.00,Acu-Link.com,2013-10-10 19:13:00,
2013-10-10 12:28:00,72.3,51.5,29.75,East,90,2.7,-999.0,48,-99.99,,,0.00,Acu-Link.com,2013-10-10 19:28:00,
2013-10-10 12:44:00,72.7,51.9,29.75,NW,315,3.2,-999.0,48,-99.99,,,0.00,Acu-Link.com,2013-10-10 19:44:00,
2013-10-10 12:59:00,67.8,51.0,29.75,NW,315,7.3,-999.0,55,-99.99,,,0.00,Acu-Link.com,2013-10-10 19:59:00,
2013-10-10 13:14:00,67.5,51.2,29.74,North,0,5.8,-999.0,56,-99.99,,,0.00,Acu-Link.com,2013-10-10 20:14:00,
2013-10-10 13:29:00,67.5,51.7,29.75,West,270,4.2,-999.0,57,-99.99,,,0.00,Acu-Link.com,2013-10-10 20:29:00,
2013-10-10 13:44:00,66.7,51.4,29.74,NNW,337,4.7,-999.0,58,-99.99,,,0.00,Acu-Link.com,2013-10-10 20:44:00,
2013-10-10 13:59:00,64.9,51.1,29.75,SSE,157,6.3,-999.0,61,-99.99,,,0.00,Acu-Link.com,2013-10-10 20:59:00,
2013-10-10 14:14:00,63.9,51.1,29.75,West,270,9.4,-999.0,63,-99.99,,,0.00,Acu-Link.com,2013-10-10 21:14:00,
2013-10-10 14:29:00,63.1,51.1,29.75,NNW,337,8.9,-999.0,65,-99.99,,,0.00,Acu-Link.com,2013-10-10 21:29:00,
2013-10-10 14:45:00,64.0,51.6,29.76,West,270,9.4,-999.0,64,-99.99,,,0.00,Acu-Link.com,2013-10-10 21:45:00,
2013-10-10 15:00:00,65.5,51.7,29.75,NE,45,6.8,-999.0,61,-99.99,,,0.00,Acu-Link.com,2013-10-10 22:00:00,
2013-10-10 15:15:00,67.1,51.8,29.75,NNW,337,5.8,-999.0,58,-99.99,,,0.00,Acu-Link.com,2013-10-10 22:15:00,
2013-10-10 15:30:00,67.3,51.1,29.75,NNE,22,7.8,-999.0,56,-99.99,,,0.00,Acu-Link.com,2013-10-10 22:30:00,
2013-10-10 15:45:00,69.3,51.4,29.75,WSW,247,3.7,-999.0,53,-99.99,,,0.00,Acu-Link.com,2013-10-10 22:45:00,
2013-10-10 16:01:00,67.5,50.8,29.75,NNW,337,5.8,-999.0,55,-99.99,,,0.00,Acu-Link.com,2013-10-10 23:01:00,
2013-10-10 16:16:00,68.5,50.7,29.75,SSW,202,3.2,-999.0,53,-99.99,,,0.00,Acu-Link.com,2013-10-10 23:16:00,
2013-10-10 16:31:00,69.1,50.7,29.75,NNE,22,3.7,-999.0,52,-99.99,,,0.00,Acu-Link.com,2013-10-10 23:31:00,
2013-10-10 16:46:00,70.7,51.1,29.74,West,270,1.7,-999.0,50,-99.99,,,0.00,Acu-Link.com,2013-10-10 23:46:00,
2013-10-10 17:01:00,69.4,50.5,29.74,West,270,2.7,-999.0,51,-99.99,,,0.00,Acu-Link.com,2013-10-11 00:01:00,
2013-10-10 17:17:00,67.3,49.6,29.74,ESE,112,2.7,-999.0,53,-99.99,,,0.00,Acu-Link.com,2013-10-11 00:17:00,
2013-10-10 17:32:00,62.2,49.4,29.75,NE,45,4.2,-999.0,63,-99.99,,,0.00,Acu-Link.com,2013-10-11 00:32:00,
2013-10-10 17:47:00,57.6,49.7,29.76,North,0,5.3,-999.0,75,-99.99,,,0.00,Acu-Link.com,2013-10-11 00:47:00,
2013-10-10 18:02:00,56.1,50.0,29.76,NNW,337,4.7,-999.0,80,-99.99,,,0.00,Acu-Link.com,2013-10-11 01:02:00,
2013-10-10 18:17:00,54.9,50.2,29.76,NNE,22,9.9,-999.0,84,-99.99,,,0.00,Acu-Link.com,2013-10-11 01:17:00,
2013-10-10 18:32:00,54.3,50.2,29.77,WSW,247,7.3,-999.0,86,-99.99,,,0.00,Acu-Link.com,2013-10-11 01:32:00,
2013-10-10 18:47:00,54.0,50.2,29.77,North,0,5.8,-999.0,87,-99.99,,,0.00,Acu-Link.com,2013-10-11 01:47:00,
2013-10-10 19:03:00,53.8,50.3,29.77,WNW,292,5.8,-999.0,88,-99.99,,,0.00,Acu-Link.com,2013-10-11 02:03:00,
2013-10-10 19:18:00,53.6,50.1,29.78,North,0,5.3,-999.0,88,-99.99,,,0.00,Acu-Link.com,2013-10-11 02:18:00,
2013-10-10 19:33:00,53.4,49.9,29.78,South,180,6.3,-999.0,88,-99.99,,,0.00,Acu-Link.com,2013-10-11 02:33:00,
2013-10-10 19:48:00,53.2,50.0,29.78,North,0,2.2,-999.0,89,-99.99,,,0.00,Acu-Link.com,2013-10-11 02:48:00,
2013-10-10 20:03:00,53.1,50.2,29.79,NNW,337,6.8,-999.0,90,-99.99,,,0.00,Acu-Link.com,2013-10-11 03:03:00,
2013-10-10 20:19:00,52.9,50.0,29.80,West,270,6.3,-999.0,90,-99.99,,,0.00,Acu-Link.com,2013-10-11 03:19:00,
2013-10-10 20:34:00,52.9,50.3,29.79,North,0,5.8,-999.0,91,-99.99,,,0.00,Acu-Link.com,2013-10-11 03:34:00,
2013-10-10 20:49:00,52.7,50.4,29.80,South,180,2.2,-999.0,92,-99.99,,,0.00,Acu-Link.com,2013-10-11 03:49:00,
2013-10-10 21:05:00,52.5,50.2,29.81,West,270,4.2,-999.0,92,-99.99,,,0.00,Acu-Link.com,2013-10-11 04:05:00,
2013-10-10 21:20:00,52.3,50.3,29.81,West,270,3.7,-999.0,93,-99.99,,,0.00,Acu-Link.com,2013-10-11 04:20:00,
2013-10-10 21:35:00,52.2,50.2,29.81,NW,315,4.7,-999.0,93,-99.99,,,0.00,Acu-Link.com,2013-10-11 04:35:00,
2013-10-10 21:51:00,52.2,50.2,29.82,WNW,292,4.2,-999.0,93,-99.99,,,0.00,Acu-Link.com,2013-10-11 04:51:00,
2013-10-10 22:07:00,52.0,50.0,29.82,SSW,202,2.7,-999.0,93,-99.99,,,0.00,Acu-Link.com,2013-10-11 05:07:00,
2013-10-10 22:22:00,52.0,50.0,29.82,West,270,2.7,-999.0,93,-99.99,,,0.00,Acu-Link.com,2013-10-11 05:22:00,
2013-10-10 22:37:00,51.6,49.6,29.82,West,270,0.0,-999.0,93,-99.99,,,0.00,Acu-Link.com,2013-10-11 05:37:00,
2013-10-10 22:53:00,51.3,49.1,29.82,West,270,0.0,-999.0,92,-99.99,,,0.00,Acu-Link.com,2013-10-11 05:53:00,
2013-10-10 23:08:00,50.9,49.2,29.83,NNW,337,3.7,-999.0,94,-99.99,,,0.00,Acu-Link.com,2013-10-11 06:08:00,
2013-10-10 23:23:00,51.3,49.6,29.83,NW,315,0.0,-999.0,94,-99.99,,,0.00,Acu-Link.com,2013-10-11 06:23:00,
2013-10-10 23:39:00,51.1,49.4,29.83,NNW,337,0.0,-999.0,94,-99.99,,,0.00,Acu-Link.com,2013-10-11 06:39:00,
2013-10-10 23:54:00,50.5,48.8,29.83,ENE,67,0.0,-999.0,94,-99.99,,,0.00,Acu-Link.com,2013-10-11 06:54:00,